Time;durP1;ratioP1;P1;durP2;ratioP2;P2;SDS_P1;SDS_P2;PMS_P1;PMS_P2;Temp;Humidity;BMP_temperature;BMP_pressure;BME280_temperature;BME280_humidity;BME280_pressure;Samples;Min_cycle;Max_cycle;Signal;HPM_P1;HPM_P2
2021/07/07 00:01:40;;;;;;;3.63;2.20;;;;;;;;;;4997600;28;20047;-83
2021/07/07 00:04:07;;;;;;;3.30;2.00;;;;;;;;;;4997552;28;20065;-83
2021/07/07 00:06:33;;;;;;;3.15;1.98;;;;;;;;;;4997241;28;20105;-84
2021/07/07 00:08:59;;;;;;;4.32;1.40;;;;;;;;;;4996611;28;20046;-86
2021/07/07 00:11:27;;;;;;;2.70;1.60;;;;;;;;;;4996727;28;20141;-83
2021/07/07 00:13:54;;;;;;;5.15;1.95;;;;;;;;;;4997154;28;20043;-83
2021/07/07 00:16:20;;;;;;;4.07;1.67;;;;;;;;;;4997539;28;20057;-83
2021/07/07 00:18:47;;;;;;;2.72;1.80;;;;;;;;;;4996790;28;20046;-82
2021/07/07 00:21:14;;;;;;;2.60;1.67;;;;;;;;;;4997262;28;20051;-83
2021/07/07 00:23:40;;;;;;;3.00;1.75;;;;;;;;;;4997175;28;20043;-84
2021/07/07 00:26:07;;;;;;;2.10;1.48;;;;;;;;;;4996282;28;20487;-83
2021/07/07 00:28:34;;;;;;;2.58;1.70;;;;;;;;;;4996929;28;20154;-83
2021/07/07 00:31:01;;;;;;;2.47;1.40;;;;;;;;;;4996984;28;20046;-83
2021/07/07 00:33:27;;;;;;;3.22;1.77;;;;;;;;;;4996080;28;20046;-83
2021/07/07 00:35:54;;;;;;;2.47;1.52;;;;;;;;;;4996642;28;20081;-84
2021/07/07 00:38:20;;;;;;;4.53;1.80;;;;;;;;;;4996075;28;20046;-83
2021/07/07 00:40:47;;;;;;;4.32;1.63;;;;;;;;;;4995827;28;20050;-84
2021/07/07 00:43:15;;;;;;;2.47;1.55;;;;;;;;;;4996048;28;20056;-83
2021/07/07 00:45:43;;;;;;;2.88;1.50;;;;;;;;;;4995918;28;20105;-84
2021/07/07 00:48:10;;;;;;;3.17;1.80;;;;;;;;;;4996554;28;20054;-83
2021/07/07 00:50:36;;;;;;;2.50;1.60;;;;;;;;;;4996182;28;20056;-84
2021/07/07 00:53:03;;;;;;;2.78;1.40;;;;;;;;;;4996202;28;20069;-83
2021/07/07 00:55:29;;;;;;;3.20;1.50;;;;;;;;;;4996472;28;20042;-83
2021/07/07 00:57:56;;;;;;;3.85;1.65;;;;;;;;;;4996365;28;20061;-83
2021/07/07 01:00:24;;;;;;;2.08;1.27;;;;;;;;;;4996486;28;20046;-84
2021/07/07 01:02:54;;;;;;;3.63;1.25;;;;;;;;;;4996406;28;20054;-84
2021/07/07 01:05:21;;;;;;;4.60;1.70;;;;;;;;;;4995721;28;20112;-83
2021/07/07 01:07:47;;;;;;;3.10;1.45;;;;;;;;;;4995387;28;20057;-84
2021/07/07 01:10:15;;;;;;;3.72;1.67;;;;;;;;;;4995613;28;20050;-83
2021/07/07 01:12:42;;;;;;;2.75;1.52;;;;;;;;;;4995324;28;20050;-83
2021/07/07 01:15:10;;;;;;;4.03;1.80;;;;;;;;;;4996065;28;20129;-83
2021/07/07 01:17:37;;;;;;;3.63;1.30;;;;;;;;;;4995340;28;20065;-83
2021/07/07 01:20:08;;;;;;;3.58;1.30;;;;;;;;;;4996039;28;20057;-83
2021/07/07 01:22:36;;;;;;;2.83;1.50;;;;;;;;;;4996394;28;20053;-83
2021/07/07 01:25:02;;;;;;;4.90;1.48;;;;;;;;;;4995488;28;20050;-83
2021/07/07 01:27:30;;;;;;;2.15;1.27;;;;;;;;;;4995337;28;20042;-83
2021/07/07 01:29:57;;;;;;;6.30;1.38;;;;;;;;;;4995444;28;20057;-83
2021/07/07 01:32:23;;;;;;;2.47;1.25;;;;;;;;;;4995226;28;20054;-84
2021/07/07 01:34:50;;;;;;;3.17;1.20;;;;;;;;;;4995507;28;20046;-84
2021/07/07 01:37:17;;;;;;;4.45;1.48;;;;;;;;;;4999284;28;20604;-82
2021/07/07 01:39:44;;;;;;;3.67;1.75;;;;;;;;;;5001246;28;20046;-83
2021/07/07 01:42:11;;;;;;;2.25;1.48;;;;;;;;;;5000847;28;20411;-84
2021/07/07 01:44:37;;;;;;;3.60;1.75;;;;;;;;;;5000561;28;20546;-83
2021/07/07 01:47:06;;;;;;;3.85;1.60;;;;;;;;;;5000051;28;20419;-83
2021/07/07 01:49:33;;;;;;;4.57;1.60;;;;;;;;;;5000633;28;20085;-82
2021/07/07 01:51:59;;;;;;;3.65;1.63;;;;;;;;;;4998945;28;20133;-82
2021/07/07 01:54:26;;;;;;;4.03;1.65;;;;;;;;;;4999588;28;20046;-82
2021/07/07 01:56:54;;;;;;;4.72;2.03;;;;;;;;;;4999356;28;20050;-82
2021/07/07 01:59:28;;;;;;;3.72;1.50;;;;;;;;;;5087630;27;20373;-67
2021/07/07 02:01:55;;;;;;;3.92;1.85;;;;;;;;;;5069154;28;20144;-67
2021/07/07 02:04:22;;;;;;;3.55;1.50;;;;;;;;;;5068748;28;20055;-66
2021/07/07 02:06:48;;;;;;;4.50;1.48;;;;;;;;;;5068982;28;20053;-67
2021/07/07 02:09:15;;;;;;;4.13;1.50;;;;;;;;;;5068954;28;20049;-67
2021/07/07 02:11:42;;;;;;;3.20;1.75;;;;;;;;;;5068886;28;20045;-67
2021/07/07 02:14:08;;;;;;;4.63;1.70;;;;;;;;;;5068750;28;20053;-67
2021/07/07 02:16:36;;;;;;;3.17;1.60;;;;;;;;;;5068880;28;20144;-67
2021/07/07 02:19:03;;;;;;;2.35;1.33;;;;;;;;;;5068392;28;20473;-67
2021/07/07 02:21:29;;;;;;;3.05;1.70;;;;;;;;;;5068474;28;20055;-67
2021/07/07 02:23:57;;;;;;;3.75;1.63;;;;;;;;;;5068310;28;20053;-67
2021/07/07 02:26:24;;;;;;;2.85;1.45;;;;;;;;;;5068421;28;20143;-67
2021/07/07 02:28:51;;;;;;;4.13;2.15;;;;;;;;;;5068251;28;20049;-67
2021/07/07 02:31:17;;;;;;;4.00;1.67;;;;;;;;;;5068108;28;20048;-67
2021/07/07 02:33:45;;;;;;;2.35;1.90;;;;;;;;;;5068116;28;20142;-67
2021/07/07 02:36:12;;;;;;;2.40;1.60;;;;;;;;;;5068465;28;20482;-68
2021/07/07 02:38:38;;;;;;;9.82;1.80;;;;;;;;;;5067887;28;20048;-68
2021/07/07 02:41:05;;;;;;;2.50;1.83;;;;;;;;;;5068312;28;20457;-67
2021/07/07 02:43:31;;;;;;;3.47;1.60;;;;;;;;;;5067995;28;20049;-67
2021/07/07 02:45:58;;;;;;;4.25;1.60;;;;;;;;;;5068043;28;20045;-67
2021/07/07 02:48:24;;;;;;;2.05;1.52;;;;;;;;;;5067692;28;20085;-67
2021/07/07 02:50:52;;;;;;;2.55;1.70;;;;;;;;;;5068148;28;20055;-67
2021/07/07 02:53:19;;;;;;;3.92;1.63;;;;;;;;;;5067748;28;20057;-67
2021/07/07 02:55:46;;;;;;;3.35;1.50;;;;;;;;;;5067851;28;20468;-67
2021/07/07 02:58:13;;;;;;;4.80;1.83;;;;;;;;;;5067516;28;20405;-67
2021/07/07 03:00:41;;;;;;;2.35;1.60;;;;;;;;;;5067529;28;20049;-67
2021/07/07 03:03:09;;;;;;;2.63;1.77;;;;;;;;;;5067357;28;20063;-67
2021/07/07 03:05:37;;;;;;;2.88;1.63;;;;;;;;;;5067734;28;20139;-67
2021/07/07 03:08:06;;;;;;;3.40;1.60;;;;;;;;;;5067634;28;20076;-68
2021/07/07 03:10:32;;;;;;;4.68;1.90;;;;;;;;;;5055889;28;20052;-67
2021/07/07 03:12:59;;;;;;;4.88;2.17;;;;;;;;;;5054196;28;20516;-67
2021/07/07 03:15:26;;;;;;;5.43;1.90;;;;;;;;;;5054199;28;20049;-68
2021/07/07 03:17:53;;;;;;;3.65;1.83;;;;;;;;;;5054306;28;20041;-68
2021/07/07 03:20:19;;;;;;;2.42;1.90;;;;;;;;;;5054034;28;20052;-67
2021/07/07 03:22:46;;;;;;;3.10;1.55;;;;;;;;;;5054175;28;20401;-68
2021/07/07 03:25:14;;;;;;;3.50;1.60;;;;;;;;;;5054200;28;20049;-67
2021/07/07 03:27:41;;;;;;;4.47;1.80;;;;;;;;;;5053665;28;20056;-67
2021/07/07 03:30:09;;;;;;;5.68;2.15;;;;;;;;;;5054043;28;20053;-68
2021/07/07 03:32:36;;;;;;;2.72;1.98;;;;;;;;;;5053883;28;20045;-68
2021/07/07 03:35:04;;;;;;;3.30;2.03;;;;;;;;;;5054095;28;20049;-68
2021/07/07 03:37:30;;;;;;;2.90;2.00;;;;;;;;;;5053785;28;20049;-68
2021/07/07 03:39:56;;;;;;;3.15;2.05;;;;;;;;;;5053899;28;20049;-68
2021/07/07 03:42:24;;;;;;;2.75;1.85;;;;;;;;;;5053718;28;20413;-66
2021/07/07 03:44:51;;;;;;;2.85;1.60;;;;;;;;;;5054022;28;20067;-68
2021/07/07 03:47:17;;;;;;;2.97;1.90;;;;;;;;;;5053800;28;20049;-67
2021/07/07 03:49:44;;;;;;;3.30;1.70;;;;;;;;;;5053882;28;20052;-67
2021/07/07 03:52:10;;;;;;;3.13;2.00;;;;;;;;;;5053584;28;20049;-68
2021/07/07 03:54:37;;;;;;;2.90;2.10;;;;;;;;;;5053674;28;20085;-67
2021/07/07 03:57:04;;;;;;;5.30;2.50;;;;;;;;;;5053372;28;20045;-67
2021/07/07 03:59:31;;;;;;;2.72;1.85;;;;;;;;;;5053641;28;20394;-67
2021/07/07 04:01:58;;;;;;;3.72;1.70;;;;;;;;;;5053657;28;20087;-67
2021/07/07 04:04:25;;;;;;;3.10;2.25;;;;;;;;;;5053338;28;20045;-67
2021/07/07 04:06:56;;;;;;;5.40;2.08;;;;;;;;;;5053468;28;20052;-67
2021/07/07 04:09:22;;;;;;;4.50;1.90;;;;;;;;;;5053469;28;20629;-67
2021/07/07 04:11:49;;;;;;;3.65;2.08;;;;;;;;;;5053330;28;20057;-67
2021/07/07 04:14:22;;;;;;;3.08;2.10;;;;;;;;;;5053231;28;20041;-67
2021/07/07 04:16:51;;;;;;;3.97;1.98;;;;;;;;;;5053315;28;20059;-67
2021/07/07 04:19:18;;;;;;;3.08;2.20;;;;;;;;;;5053228;28;20049;-67
2021/07/07 04:21:44;;;;;;;4.40;2.75;;;;;;;;;;5051849;28;20051;-67
2021/07/07 04:24:11;;;;;;;2.42;1.65;;;;;;;;;;5053258;28;20139;-67
2021/07/07 04:26:38;;;;;;;9.13;2.70;;;;;;;;;;5053048;28;20126;-67
2021/07/07 04:29:04;;;;;;;6.28;2.13;;;;;;;;;;5053115;28;20136;-67
2021/07/07 04:31:31;;;;;;;3.83;2.03;;;;;;;;;;5052992;28;20053;-67
2021/07/07 04:33:59;;;;;;;4.80;3.90;;;;;;;;;;5052781;28;20053;-67
2021/07/07 04:36:25;;;;;;;7.10;4.45;;;;;;;;;;5052944;28;20405;-67
2021/07/07 04:38:52;;;;;;;4.45;2.70;;;;;;;;;;5052595;28;20047;-66
2021/07/07 04:41:18;;;;;;;4.50;2.10;;;;;;;;;;5052371;28;20135;-67
2021/07/07 04:43:45;;;;;;;4.53;1.98;;;;;;;;;;5068976;28;20052;-67
2021/07/07 04:46:11;;;;;;;3.72;2.08;;;;;;;;;;5052626;28;20413;-67
2021/07/07 04:48:38;;;;;;;6.47;2.28;;;;;;;;;;5052440;28;20398;-67
2021/07/07 04:51:06;;;;;;;3.20;2.10;;;;;;;;;;5052317;28;20049;-67
2021/07/07 04:53:32;;;;;;;3.53;2.20;;;;;;;;;;5052539;28;20053;-67
2021/07/07 04:55:59;;;;;;;4.10;2.15;;;;;;;;;;5052670;28;20413;-67
2021/07/07 04:58:25;;;;;;;3.42;2.40;;;;;;;;;;5052057;28;20094;-67
2021/07/07 05:00:52;;;;;;;3.65;2.20;;;;;;;;;;5052334;28;20048;-68
2021/07/07 05:03:18;;;;;;;5.18;3.17;;;;;;;;;;5052461;28;20057;-67
2021/07/07 05:05:45;;;;;;;4.95;2.55;;;;;;;;;;5052444;28;20045;-67
2021/07/07 05:08:13;;;;;;;3.67;2.13;;;;;;;;;;5052517;28;20649;-66
2021/07/07 05:10:40;;;;;;;3.35;1.90;;;;;;;;;;5052223;28;20417;-66
2021/07/07 05:13:06;;;;;;;3.78;1.95;;;;;;;;;;5051829;28;20045;-66
2021/07/07 05:15:33;;;;;;;4.18;2.13;;;;;;;;;;5052404;28;20417;-67
2021/07/07 05:18:00;;;;;;;6.57;2.00;;;;;;;;;;5052323;28;20044;-66
2021/07/07 05:20:27;;;;;;;4.63;1.67;;;;;;;;;;5051877;28;20493;-66
2021/07/07 05:22:54;;;;;;;3.08;1.70;;;;;;;;;;5051832;28;20048;-66
2021/07/07 05:25:21;;;;;;;3.92;1.83;;;;;;;;;;5052207;28;20055;-66
2021/07/07 05:27:48;;;;;;;5.00;2.00;;;;;;;;;;5052086;28;20052;-67
2021/07/07 05:30:16;;;;;;;3.40;2.20;;;;;;;;;;5052039;28;20049;-66
2021/07/07 05:32:43;;;;;;;3.67;1.63;;;;;;;;;;5051515;28;20107;-66
2021/07/07 05:35:10;;;;;;;3.05;2.22;;;;;;;;;;5051624;28;20049;-67
2021/07/07 05:37:37;;;;;;;3.80;2.70;;;;;;;;;;5051983;28;20421;-67
2021/07/07 05:40:05;;;;;;;4.30;2.92;;;;;;;;;;5051785;28;20541;-66
2021/07/07 05:42:33;;;;;;;4.72;2.20;;;;;;;;;;5052119;28;20064;-66
2021/07/07 05:45:00;;;;;;;5.30;2.30;;;;;;;;;;5051836;28;20460;-66
2021/07/07 05:47:27;;;;;;;7.97;2.40;;;;;;;;;;5051817;28;20053;-66
2021/07/07 05:49:56;;;;;;;6.55;3.05;;;;;;;;;;5051982;28;20045;-66
2021/07/07 05:52:24;;;;;;;2.60;1.70;;;;;;;;;;5052057;28;20051;-66
2021/07/07 05:54:50;;;;;;;2.90;1.80;;;;;;;;;;5051545;28;20057;-66
2021/07/07 05:57:17;;;;;;;4.00;1.63;;;;;;;;;;5051826;28;20052;-66
2021/07/07 05:59:45;;;;;;;3.60;1.90;;;;;;;;;;5051936;28;20076;-66
2021/07/07 06:02:11;;;;;;;2.35;1.60;;;;;;;;;;5058514;28;20059;-66
2021/07/07 06:04:41;;;;;;;2.42;1.48;;;;;;;;;;5071340;28;20051;-67
2021/07/07 06:07:08;;;;;;;3.03;1.83;;;;;;;;;;5071228;28;20404;-67
2021/07/07 06:09:34;;;;;;;2.88;2.00;;;;;;;;;;5071209;28;20044;-67
2021/07/07 06:12:01;;;;;;;3.40;2.40;;;;;;;;;;5071373;28;20050;-67
2021/07/07 06:14:27;;;;;;;4.65;2.05;;;;;;;;;;5071092;28;20128;-67
2021/07/07 06:16:55;;;;;;;3.38;2.17;;;;;;;;;;5071410;28;20068;-67
2021/07/07 06:19:22;;;;;;;6.72;1.98;;;;;;;;;;5071205;28;20045;-67
2021/07/07 06:21:48;;;;;;;2.55;1.50;;;;;;;;;;5071115;28;20044;-67
2021/07/07 06:24:16;;;;;;;4.53;2.00;;;;;;;;;;5071208;28;20052;-67
2021/07/07 06:26:42;;;;;;;3.60;2.33;;;;;;;;;;5068828;28;20060;-67
2021/07/07 06:29:10;;;;;;;3.65;2.00;;;;;;;;;;5071370;28;20056;-67
2021/07/07 06:31:37;;;;;;;4.10;1.90;;;;;;;;;;5071909;28;20060;-67
2021/07/07 06:34:04;;;;;;;2.80;1.92;;;;;;;;;;5071878;28;20052;-67
2021/07/07 06:36:31;;;;;;;4.25;2.30;;;;;;;;;;5071572;28;20045;-67
2021/07/07 06:38:57;;;;;;;3.45;1.90;;;;;;;;;;5071648;28;20136;-67
2021/07/07 06:41:24;;;;;;;3.13;2.13;;;;;;;;;;5071558;28;20052;-67
2021/07/07 06:43:50;;;;;;;3.80;1.98;;;;;;;;;;5071449;28;20496;-67
2021/07/07 06:46:17;;;;;;;4.65;2.47;;;;;;;;;;5075407;28;20460;-67
2021/07/07 06:48:43;;;;;;;5.15;2.13;;;;;;;;;;5075404;28;20054;-67
2021/07/07 06:51:11;;;;;;;3.78;2.25;;;;;;;;;;5075433;28;20048;-67
2021/07/07 06:53:38;;;;;;;2.78;1.88;;;;;;;;;;5075139;28;20056;-67
2021/07/07 06:56:05;;;;;;;5.07;2.50;;;;;;;;;;5075323;28;20388;-67
2021/07/07 06:58:32;;;;;;;4.45;2.67;;;;;;;;;;5074978;28;20057;-67
2021/07/07 07:00:58;;;;;;;2.33;1.77;;;;;;;;;;5074760;28;20053;-67
2021/07/07 07:03:25;;;;;;;3.22;1.98;;;;;;;;;;5075050;28;20059;-67
2021/07/07 07:05:51;;;;;;;4.15;2.03;;;;;;;;;;5074964;28;20049;-67
2021/07/07 07:08:19;;;;;;;2.92;2.08;;;;;;;;;;5074786;28;20052;-67
2021/07/07 07:10:46;;;;;;;3.15;2.35;;;;;;;;;;5074516;28;20400;-67
2021/07/07 07:13:13;;;;;;;5.97;2.47;;;;;;;;;;5074677;28;20056;-67
2021/07/07 07:15:39;;;;;;;4.10;2.20;;;;;;;;;;5074794;28;20053;-67
2021/07/07 07:18:06;;;;;;;4.63;2.42;;;;;;;;;;5074874;28;20044;-67
2021/07/07 07:20:33;;;;;;;6.35;2.60;;;;;;;;;;5074799;28;20049;-67
2021/07/07 07:22:59;;;;;;;5.22;2.70;;;;;;;;;;5074625;28;20067;-67
2021/07/07 07:25:28;;;;;;;3.53;2.00;;;;;;;;;;5074625;28;20059;-67
2021/07/07 07:27:54;;;;;;;4.40;2.10;;;;;;;;;;5073851;28;20084;-67
2021/07/07 07:30:21;;;;;;;6.13;2.47;;;;;;;;;;5074364;28;20044;-67
2021/07/07 07:32:49;;;;;;;3.40;2.25;;;;;;;;;;5074060;28;20048;-67
2021/07/07 07:35:17;;;;;;;3.20;2.38;;;;;;;;;;5074437;28;20049;-66
2021/07/07 07:37:49;;;;;;;4.05;2.38;;;;;;;;;;5074211;28;20092;-66
2021/07/07 07:40:21;;;;;;;4.50;2.53;;;;;;;;;;5074153;28;20095;-66
2021/07/07 07:42:49;;;;;;;4.22;2.50;;;;;;;;;;5074003;28;20094;-67
2021/07/07 07:45:16;;;;;;;3.75;2.33;;;;;;;;;;5073968;28;20055;-66
2021/07/07 07:47:44;;;;;;;4.13;2.55;;;;;;;;;;5074066;28;20526;-66
2021/07/07 07:50:12;;;;;;;4.85;2.20;;;;;;;;;;5074045;28;20064;-67
2021/07/07 07:52:38;;;;;;;5.88;2.92;;;;;;;;;;5074170;28;20144;-66
2021/07/07 07:55:06;;;;;;;3.75;2.03;;;;;;;;;;5073727;28;20059;-66
2021/07/07 07:57:36;;;;;;;5.47;2.20;;;;;;;;;;5073457;28;20051;-67
2021/07/07 08:00:06;;;;;;;6.60;2.25;;;;;;;;;;5073273;28;20037;-67
2021/07/07 08:02:33;;;;;;;3.22;2.00;;;;;;;;;;5073089;28;20416;-67
2021/07/07 08:04:59;;;;;;;5.25;2.00;;;;;;;;;;5073424;28;20044;-67
2021/07/07 08:07:28;;;;;;;5.05;2.50;;;;;;;;;;5070172;28;20044;-67
2021/07/07 08:09:54;;;;;;;5.80;2.08;;;;;;;;;;5072701;28;20048;-66
2021/07/07 08:12:21;;;;;;;4.57;2.47;;;;;;;;;;5072878;28;20051;-67
2021/07/07 08:14:50;;;;;;;4.07;2.10;;;;;;;;;;5073277;28;20084;-67
2021/07/07 08:17:18;;;;;;;4.93;2.25;;;;;;;;;;5073050;28;20067;-67
2021/07/07 08:19:44;;;;;;;2.92;1.83;;;;;;;;;;5073021;28;20131;-67
2021/07/07 08:22:11;;;;;;;3.22;1.77;;;;;;;;;;5064772;28;20135;-67
2021/07/07 08:24:37;;;;;;;4.45;2.20;;;;;;;;;;5073090;28;20055;-67
2021/07/07 08:27:04;;;;;;;5.72;2.20;;;;;;;;;;5073194;28;20063;-67
2021/07/07 08:29:31;;;;;;;3.25;1.95;;;;;;;;;;5072766;28;20044;-67
2021/07/07 08:31:57;;;;;;;3.28;2.05;;;;;;;;;;5073080;28;20127;-67
2021/07/07 08:34:25;;;;;;;3.00;1.80;;;;;;;;;;5072863;28;20127;-67
2021/07/07 08:36:51;;;;;;;3.65;2.00;;;;;;;;;;5072787;28;20048;-67
2021/07/07 08:39:18;;;;;;;3.38;1.98;;;;;;;;;;5072825;28;20660;-67
2021/07/07 08:41:45;;;;;;;3.75;2.13;;;;;;;;;;5073070;28;20403;-67
2021/07/07 08:44:11;;;;;;;3.72;2.38;;;;;;;;;;5072920;28;20049;-67
2021/07/07 08:46:38;;;;;;;4.03;2.20;;;;;;;;;;5073348;28;20078;-66
2021/07/07 08:49:05;;;;;;;3.67;1.85;;;;;;;;;;5072795;28;20041;-66
2021/07/07 08:51:33;;;;;;;3.75;1.80;;;;;;;;;;5072097;28;20074;-67
2021/07/07 08:54:01;;;;;;;4.18;2.30;;;;;;;;;;5072281;28;20540;-67
2021/07/07 08:56:27;;;;;;;3.85;2.10;;;;;;;;;;5072268;28;20051;-67
2021/07/07 08:58:54;;;;;;;4.25;1.98;;;;;;;;;;5071548;28;20052;-67
2021/07/07 09:01:20;;;;;;;2.50;2.03;;;;;;;;;;5071626;28;20048;-67
2021/07/07 09:03:47;;;;;;;3.90;2.30;;;;;;;;;;5071724;28;20052;-67
2021/07/07 09:06:13;;;;;;;3.42;2.10;;;;;;;;;;5071645;28;20060;-67
2021/07/07 09:08:46;;;;;;;4.57;2.25;;;;;;;;;;5071396;28;20053;-67
2021/07/07 09:11:17;;;;;;;3.38;2.15;;;;;;;;;;5071769;28;20075;-67
2021/07/07 09:13:44;;;;;;;4.05;2.05;;;;;;;;;;5072355;28;20058;-67
2021/07/07 09:16:12;;;;;;;4.20;1.88;;;;;;;;;;5073117;28;20049;-67
2021/07/07 09:18:39;;;;;;;5.03;2.03;;;;;;;;;;5072735;28;20135;-67
2021/07/07 09:21:24;;;;;;;7.13;2.20;;;;;;;;;;5072728;28;20041;-67
2021/07/07 09:23:52;;;;;;;3.40;2.00;;;;;;;;;;5072489;28;20059;-67
2021/07/07 09:26:27;;;;;;;2.40;1.67;;;;;;;;;;5072440;28;20412;-67
2021/07/07 09:28:53;;;;;;;2.30;1.60;;;;;;;;;;5072624;28;20058;-67
2021/07/07 09:31:34;;;;;;;3.55;1.77;;;;;;;;;;5072642;28;20490;-67
2021/07/07 09:34:14;;;;;;;2.67;1.90;;;;;;;;;;5072289;28;20059;-67
2021/07/07 09:36:44;;;;;;;3.00;1.88;;;;;;;;;;5072666;28;20045;-67
2021/07/07 09:39:12;;;;;;;2.20;1.60;;;;;;;;;;5072405;28;20054;-67
2021/07/07 09:41:39;;;;;;;3.70;1.70;;;;;;;;;;5072405;28;20049;-67
2021/07/07 09:44:07;;;;;;;2.17;1.50;;;;;;;;;;5072318;28;20106;-67
2021/07/07 09:46:35;;;;;;;3.30;1.65;;;;;;;;;;5072113;28;20052;-67
2021/07/07 09:49:02;;;;;;;3.10;2.10;;;;;;;;;;5072492;28;20048;-67
2021/07/07 09:51:28;;;;;;;2.50;1.83;;;;;;;;;;5072195;28;20056;-66
2021/07/07 09:53:54;;;;;;;2.72;1.58;;;;;;;;;;5072112;28;20059;-66
2021/07/07 09:56:22;;;;;;;3.05;1.58;;;;;;;;;;5071730;28;20048;-66
2021/07/07 09:58:49;;;;;;;4.38;1.55;;;;;;;;;;5071731;28;20063;-66
2021/07/07 10:01:15;;;;;;;3.38;1.85;;;;;;;;;;5071582;28;20102;-66
2021/07/07 10:03:42;;;;;;;2.42;1.60;;;;;;;;;;5071649;28;20049;-66
2021/07/07 10:06:09;;;;;;;2.20;1.55;;;;;;;;;;5071551;28;20060;-66
2021/07/07 10:08:35;;;;;;;3.42;2.00;;;;;;;;;;5071701;28;20477;-66
2021/07/07 10:11:02;;;;;;;3.45;2.25;;;;;;;;;;5071268;28;20055;-66
2021/07/07 10:13:31;;;;;;;3.70;2.13;;;;;;;;;;5071586;28;20071;-66
2021/07/07 10:15:57;;;;;;;2.88;1.95;;;;;;;;;;5071396;28;20048;-66
2021/07/07 10:18:24;;;;;;;3.58;2.53;;;;;;;;;;5071198;28;20074;-65
2021/07/07 10:20:52;;;;;;;3.40;2.17;;;;;;;;;;5074495;28;20044;-66
2021/07/07 10:23:19;;;;;;;6.72;2.42;;;;;;;;;;5075341;28;20056;-66
2021/07/07 10:25:46;;;;;;;3.78;2.13;;;;;;;;;;5070931;28;20055;-66
2021/07/07 10:28:14;;;;;;;3.47;2.58;;;;;;;;;;5070933;28;20392;-66
2021/07/07 10:30:56;;;;;;;5.25;2.35;;;;;;;;;;5067329;28;20045;-66
2021/07/07 10:33:24;;;;;;;5.22;2.08;;;;;;;;;;5075193;28;20408;-66
2021/07/07 10:35:52;;;;;;;2.83;2.03;;;;;;;;;;5074274;28;20407;-66
2021/07/07 10:38:19;;;;;;;3.85;1.90;;;;;;;;;;5074704;28;20049;-66
2021/07/07 10:40:52;;;;;;;3.55;2.50;;;;;;;;;;5074672;28;20047;-66
2021/07/07 10:43:26;;;;;;;5.10;2.33;;;;;;;;;;5075199;28;20056;-67
2021/07/07 10:45:53;;;;;;;3.90;2.22;;;;;;;;;;5075245;28;20059;-66
2021/07/07 10:48:28;;;;;;;4.03;2.20;;;;;;;;;;5075241;28;20396;-66
2021/07/07 10:50:56;;;;;;;5.78;3.22;;;;;;;;;;5074955;28;20051;-66
2021/07/07 10:53:30;;;;;;;6.63;2.70;;;;;;;;;;5074221;28;20048;-66
2021/07/07 10:55:58;;;;;;;3.45;2.00;;;;;;;;;;5074540;28;20049;-66
2021/07/07 10:58:27;;;;;;;3.42;2.38;;;;;;;;;;5074597;28;20057;-66
2021/07/07 11:00:54;;;;;;;5.55;2.53;;;;;;;;;;5074666;28;20048;-66
2021/07/07 11:03:31;;;;;;;3.75;2.20;;;;;;;;;;5074605;28;20048;-66
2021/07/07 11:05:58;;;;;;;2.97;2.13;;;;;;;;;;5074468;28;20052;-66
2021/07/07 11:08:28;;;;;;;3.50;1.77;;;;;;;;;;5074415;28;20048;-66
2021/07/07 11:10:56;;;;;;;4.85;2.20;;;;;;;;;;5074644;28;20044;-66
2021/07/07 11:13:23;;;;;;;3.75;2.28;;;;;;;;;;5074403;28;20123;-66
2021/07/07 11:15:50;;;;;;;4.43;2.55;;;;;;;;;;5074561;28;20382;-66
2021/07/07 11:18:23;;;;;;;3.80;2.17;;;;;;;;;;5074181;28;20397;-66
2021/07/07 11:20:55;;;;;;;3.22;2.05;;;;;;;;;;5074071;28;20044;-66
2021/07/07 11:23:22;;;;;;;3.03;2.55;;;;;;;;;;5073859;28;20045;-66
2021/07/07 11:25:48;;;;;;;3.90;2.60;;;;;;;;;;5074217;28;20139;-66
2021/07/07 11:28:17;;;;;;;6.53;3.10;;;;;;;;;;5073949;28;20052;-66
2021/07/07 11:30:44;;;;;;;2.80;2.35;;;;;;;;;;5073635;28;20049;-66
2021/07/07 11:33:10;;;;;;;3.35;2.15;;;;;;;;;;5074021;28;20045;-66
2021/07/07 11:35:39;;;;;;;3.58;2.33;;;;;;;;;;5073980;28;20048;-66
2021/07/07 11:38:08;;;;;;;4.45;2.67;;;;;;;;;;5074305;28;20135;-66
2021/07/07 11:40:36;;;;;;;3.13;2.42;;;;;;;;;;5074123;28;20496;-66
2021/07/07 11:43:04;;;;;;;5.13;2.40;;;;;;;;;;5074074;28;20059;-66
2021/07/07 11:45:33;;;;;;;3.85;2.60;;;;;;;;;;5074207;28;20059;-66
2021/07/07 11:48:06;;;;;;;2.97;2.17;;;;;;;;;;5073944;28;20053;-66
2021/07/07 11:50:33;;;;;;;3.72;2.13;;;;;;;;;;5074022;28;20044;-64
2021/07/07 11:53:04;;;;;;;4.75;2.47;;;;;;;;;;5073948;28;20070;-66
2021/07/07 11:55:58;;;;;;;6.93;3.35;;;;;;;;;;5073491;28;20060;-66
2021/07/07 11:58:36;;;;;;;3.33;2.20;;;;;;;;;;5037619;28;20056;-66
2021/07/07 12:01:06;;;;;;;3.30;2.30;;;;;;;;;;5073555;28;20049;-67
2021/07/07 12:03:33;;;;;;;3.63;2.75;;;;;;;;;;5073819;28;20057;-66
2021/07/07 12:06:02;;;;;;;3.97;2.22;;;;;;;;;;5073613;28;20084;-66
2021/07/07 12:08:32;;;;;;;4.60;2.60;;;;;;;;;;5073343;28;20489;-66
2021/07/07 12:11:10;;;;;;;4.80;2.70;;;;;;;;;;5072750;28;20055;-65
2021/07/07 12:13:37;;;;;;;3.70;2.38;;;;;;;;;;5073365;28;20457;-66
2021/07/07 12:16:30;;;;;;;3.90;2.58;;;;;;;;;;5073324;28;20150;-66
2021/07/07 12:18:58;;;;;;;3.65;2.55;;;;;;;;;;5058648;28;20048;-65
2021/07/07 12:21:41;;;;;;;4.00;2.70;;;;;;;;;;5072785;28;20048;-65
2021/07/07 12:24:10;;;;;;;5.05;2.60;;;;;;;;;;5073154;28;20044;-65
2021/07/07 12:26:39;;;;;;;4.43;2.40;;;;;;;;;;5072938;28;20080;-66
2021/07/07 12:29:06;;;;;;;4.30;2.78;;;;;;;;;;5072693;28;20056;-65
2021/07/07 12:31:37;;;;;;;4.75;2.60;;;;;;;;;;5073008;28;20388;-66
2021/07/07 12:34:05;;;;;;;3.17;2.63;;;;;;;;;;5072973;28;20521;-66
2021/07/07 12:36:34;;;;;;;4.20;2.10;;;;;;;;;;5072851;28;20049;-66
2021/07/07 12:39:02;;;;;;;3.20;2.30;;;;;;;;;;5072930;28;20074;-65
2021/07/07 12:41:38;;;;;;;6.68;2.45;;;;;;;;;;5072384;28;20044;-66
2021/07/07 12:44:11;;;;;;;4.68;2.67;;;;;;;;;;5072439;28;20549;-66
2021/07/07 12:46:48;;;;;;;3.45;2.50;;;;;;;;;;5072394;28;20381;-66
2021/07/07 12:49:21;;;;;;;3.80;2.63;;;;;;;;;;5072585;28;20074;-66
2021/07/07 12:51:48;;;;;;;4.95;2.95;;;;;;;;;;5072700;28;20142;-66
2021/07/07 12:54:18;;;;;;;4.05;2.40;;;;;;;;;;5072475;28;20049;-66
2021/07/07 12:56:57;;;;;;;3.35;2.10;;;;;;;;;;5072597;28;20462;-66
2021/07/07 12:59:24;;;;;;;4.97;2.40;;;;;;;;;;5072162;28;20509;-66
2021/07/07 13:01:58;;;;;;;4.68;2.22;;;;;;;;;;5072492;28;20048;-66
2021/07/07 13:04:25;;;;;;;3.70;2.70;;;;;;;;;;5071749;28;20044;-66
2021/07/07 13:07:02;;;;;;;3.22;2.47;;;;;;;;;;5071311;28;20851;-66
2021/07/07 13:09:28;;;;;;;3.67;2.30;;;;;;;;;;5069390;28;20059;-66
2021/07/07 13:12:02;;;;;;;3.13;2.28;;;;;;;;;;5071153;28;20041;-66
2021/07/07 13:14:28;;;;;;;3.53;2.08;;;;;;;;;;5052316;28;20053;-66
2021/07/07 13:16:55;;;;;;;4.03;2.13;;;;;;;;;;5052271;28;20044;-66
2021/07/07 13:19:23;;;;;;;3.38;2.22;;;;;;;;;;5052003;28;20045;-66
2021/07/07 13:21:51;;;;;;;4.63;2.35;;;;;;;;;;5052220;28;20061;-66
2021/07/07 13:24:26;;;;;;;3.38;2.40;;;;;;;;;;5052347;28;20049;-66
2021/07/07 13:26:55;;;;;;;6.37;2.37;;;;;;;;;;5052287;28;20053;-66
2021/07/07 13:29:25;;;;;;;4.25;2.35;;;;;;;;;;5051729;28;20080;-66
2021/07/07 13:32:02;;;;;;;3.85;2.30;;;;;;;;;;5063699;28;20044;-66
2021/07/07 13:34:29;;;;;;;3.40;2.00;;;;;;;;;;5070910;28;20052;-66
2021/07/07 13:36:56;;;;;;;5.13;2.20;;;;;;;;;;5068280;28;20047;-66
2021/07/07 13:39:23;;;;;;;4.07;2.22;;;;;;;;;;5070603;28;20404;-66
2021/07/07 13:41:50;;;;;;;5.97;2.17;;;;;;;;;;5070269;28;20056;-66
2021/07/07 13:44:17;;;;;;;3.00;2.10;;;;;;;;;;5070291;28;20056;-66
2021/07/07 13:46:45;;;;;;;3.15;2.05;;;;;;;;;;5070301;28;20075;-66
2021/07/07 13:49:11;;;;;;;5.35;2.25;;;;;;;;;;5070237;28;20052;-66
2021/07/07 13:51:38;;;;;;;4.80;2.45;;;;;;;;;;5070483;28;20045;-66
2021/07/07 13:54:04;;;;;;;5.05;2.53;;;;;;;;;;5070060;28;20050;-66
2021/07/07 13:56:31;;;;;;;3.85;2.40;;;;;;;;;;5070375;28;20040;-66
2021/07/07 13:58:57;;;;;;;4.45;2.10;;;;;;;;;;5070137;28;20574;-66
2021/07/07 14:01:25;;;;;;;3.75;2.55;;;;;;;;;;5070500;28;20051;-66
2021/07/07 14:03:53;;;;;;;3.13;2.08;;;;;;;;;;5070400;28;20076;-66
2021/07/07 14:06:20;;;;;;;3.35;2.35;;;;;;;;;;5070159;28;20055;-66
2021/07/07 14:08:46;;;;;;;4.00;2.00;;;;;;;;;;5070357;28;20058;-66
2021/07/07 14:11:13;;;;;;;3.08;2.25;;;;;;;;;;5070429;28;20496;-66
2021/07/07 14:13:39;;;;;;;5.53;2.38;;;;;;;;;;5070211;28;20045;-67
2021/07/07 14:16:06;;;;;;;3.20;2.38;;;;;;;;;;5069998;28;20573;-67
2021/07/07 14:18:33;;;;;;;3.90;2.80;;;;;;;;;;5070029;28;20044;-67
2021/07/07 14:21:00;;;;;;;2.97;1.88;;;;;;;;;;5070171;28;20048;-67
2021/07/07 14:23:27;;;;;;;4.95;2.30;;;;;;;;;;5070366;28;20075;-67
2021/07/07 14:25:54;;;;;;;3.30;2.30;;;;;;;;;;5070150;28;20044;-67
2021/07/07 14:28:20;;;;;;;3.03;2.05;;;;;;;;;;5070099;28;20052;-66
2021/07/07 14:30:47;;;;;;;4.32;2.00;;;;;;;;;;5070308;28;20053;-67
2021/07/07 14:33:13;;;;;;;5.72;2.20;;;;;;;;;;5070157;28;20048;-67
2021/07/07 14:35:40;;;;;;;4.40;2.35;;;;;;;;;;5070160;28;20045;-67
2021/07/07 14:38:08;;;;;;;4.68;2.33;;;;;;;;;;5068928;28;20132;-67
2021/07/07 14:40:34;;;;;;;3.70;2.30;;;;;;;;;;5069755;28;20149;-67
2021/07/07 14:43:01;;;;;;;3.10;1.77;;;;;;;;;;5070003;28;20055;-66
2021/07/07 14:45:28;;;;;;;3.25;2.20;;;;;;;;;;5069814;28;20057;-66
2021/07/07 14:47:54;;;;;;;4.43;2.70;;;;;;;;;;5069988;28;20123;-67